sensor_id;sensor_type;location;lat;lon;timestamp;P1;durP1;ratioP1;P2;durP2;ratioP2
5129;SDS011;2583;50.946;6.954;2022-11-20T00:01:19;14.10;;;12.60;;
5129;SDS011;2583;50.946;6.954;2022-11-20T00:03:48;13.73;;;12.33;;
5129;SDS011;2583;50.946;6.954;2022-11-20T00:06:16;14.10;;;12.70;;
5129;SDS011;2583;50.946;6.954;2022-11-20T00:08:44;14.77;;;12.00;;
5129;SDS011;2583;50.946;6.954;2022-11-20T00:13:43;13.17;;;11.77;;
5129;SDS011;2583;50.946;6.954;2022-11-20T00:16:12;14.23;;;12.70;;
5129;SDS011;2583;50.946;6.954;2022-11-20T00:18:40;13.87;;;12.57;;
5129;SDS011;2583;50.946;6.954;2022-11-20T00:21:12;15.40;;;12.47;;
5129;SDS011;2583;50.946;6.954;2022-11-20T00:23:43;19.27;;;14.50;;
5129;SDS011;2583;50.946;6.954;2022-11-20T00:26:14;16.33;;;13.47;;
5129;SDS011;2583;50.946;6.954;2022-11-20T00:28:43;14.37;;;12.87;;
5129;SDS011;2583;50.946;6.954;2022-11-20T00:31:14;15.97;;;12.60;;
5129;SDS011;2583;50.946;6.954;2022-11-20T00:33:42;21.57;;;15.77;;
5129;SDS011;2583;50.946;6.954;2022-11-20T00:36:11;13.73;;;12.23;;
5129;SDS011;2583;50.946;6.954;2022-11-20T00:38:40;14.60;;;13.00;;
5129;SDS011;2583;50.946;6.954;2022-11-20T00:41:08;14.83;;;12.77;;
5129;SDS011;2583;50.946;6.954;2022-11-20T00:43:37;15.03;;;13.50;;
5129;SDS011;2583;50.946;6.954;2022-11-20T00:46:08;15.30;;;13.30;;
5129;SDS011;2583;50.946;6.954;2022-11-20T00:48:36;13.47;;;12.07;;
5129;SDS011;2583;50.946;6.954;2022-11-20T00:51:03;16.80;;;14.50;;
5129;SDS011;2583;50.946;6.954;2022-11-20T00:53:30;15.20;;;13.50;;
5129;SDS011;2583;50.946;6.954;2022-11-20T00:55:58;15.00;;;13.40;;
5129;SDS011;2583;50.946;6.954;2022-11-20T00:58:30;14.33;;;12.53;;
5129;SDS011;2583;50.946;6.954;2022-11-20T01:01:04;17.00;;;13.60;;
5129;SDS011;2583;50.946;6.954;2022-11-20T01:03:36;13.13;;;11.83;;
5129;SDS011;2583;50.946;6.954;2022-11-20T01:06:06;15.13;;;12.30;;
5129;SDS011;2583;50.946;6.954;2022-11-20T01:08:36;14.53;;;12.73;;
5129;SDS011;2583;50.946;6.954;2022-11-20T01:11:10;13.23;;;11.93;;
5129;SDS011;2583;50.946;6.954;2022-11-20T01:13:39;15.40;;;12.43;;
5129;SDS011;2583;50.946;6.954;2022-11-20T01:16:12;21.93;;;13.10;;
5129;SDS011;2583;50.946;6.954;2022-11-20T01:18:42;12.77;;;11.57;;
5129;SDS011;2583;50.946;6.954;2022-11-20T01:21:14;15.70;;;12.50;;
5129;SDS011;2583;50.946;6.954;2022-11-20T01:23:43;14.00;;;12.17;;
5129;SDS011;2583;50.946;6.954;2022-11-20T01:26:12;14.97;;;12.90;;
5129;SDS011;2583;50.946;6.954;2022-11-20T01:28:41;12.97;;;11.67;;
5129;SDS011;2583;50.946;6.954;2022-11-20T01:33:43;13.60;;;12.23;;
5129;SDS011;2583;50.946;6.954;2022-11-20T01:36:12;12.87;;;11.67;;
5129;SDS011;2583;50.946;6.954;2022-11-20T01:38:39;13.10;;;11.60;;
5129;SDS011;2583;50.946;6.954;2022-11-20T01:41:07;15.30;;;12.60;;
5129;SDS011;2583;50.946;6.954;2022-11-20T01:43:34;13.90;;;12.30;;
5129;SDS011;2583;50.946;6.954;2022-11-20T01:46:03;13.37;;;12.07;;
5129;SDS011;2583;50.946;6.954;2022-11-20T01:48:40;15.00;;;12.67;;
5129;SDS011;2583;50.946;6.954;2022-11-20T01:51:19;14.40;;;12.30;;
5129;SDS011;2583;50.946;6.954;2022-11-20T01:53:53;14.10;;;12.60;;
5129;SDS011;2583;50.946;6.954;2022-11-20T01:56:24;14.07;;;12.57;;
5129;SDS011;2583;50.946;6.954;2022-11-20T01:58:53;17.20;;;13.40;;
5129;SDS011;2583;50.946;6.954;2022-11-20T02:01:22;14.63;;;12.00;;
5129;SDS011;2583;50.946;6.954;2022-11-20T02:03:49;14.90;;;13.40;;
5129;SDS011;2583;50.946;6.954;2022-11-20T02:06:19;13.17;;;11.80;;
5129;SDS011;2583;50.946;6.954;2022-11-20T02:08:51;15.20;;;12.97;;
5129;SDS011;2583;50.946;6.954;2022-11-20T02:11:19;15.00;;;12.57;;
5129;SDS011;2583;50.946;6.954;2022-11-20T02:13:46;14.40;;;12.20;;
5129;SDS011;2583;50.946;6.954;2022-11-20T02:16:15;14.43;;;12.93;;
5129;SDS011;2583;50.946;6.954;2022-11-20T02:18:44;16.03;;;13.50;;
5129;SDS011;2583;50.946;6.954;2022-11-20T02:24:11;13.87;;;12.30;;
5129;SDS011;2583;50.946;6.954;2022-11-20T02:26:42;15.20;;;13.60;;
5129;SDS011;2583;50.946;6.954;2022-11-20T02:29:42;15.13;;;13.20;;
5129;SDS011;2583;50.946;6.954;2022-11-20T02:32:21;12.60;;;11.40;;
5129;SDS011;2583;50.946;6.954;2022-11-20T02:34:52;15.50;;;11.90;;
5129;SDS011;2583;50.946;6.954;2022-11-20T02:37:20;14.23;;;12.80;;
5129;SDS011;2583;50.946;6.954;2022-11-20T02:39:49;14.37;;;12.87;;
5129;SDS011;2583;50.946;6.954;2022-11-20T02:42:17;13.27;;;11.83;;
5129;SDS011;2583;50.946;6.954;2022-11-20T02:44:44;14.27;;;12.87;;
5129;SDS011;2583;50.946;6.954;2022-11-20T02:47:11;15.20;;;12.90;;
5129;SDS011;2583;50.946;6.954;2022-11-20T02:49:38;15.30;;;12.17;;
5129;SDS011;2583;50.946;6.954;2022-11-20T02:52:05;15.20;;;12.20;;
5129;SDS011;2583;50.946;6.954;2022-11-20T02:54:31;13.73;;;12.33;;
5129;SDS011;2583;50.946;6.954;2022-11-20T02:56:58;14.03;;;12.53;;
5129;SDS011;2583;50.946;6.954;2022-11-20T02:59:25;18.97;;;12.37;;
5129;SDS011;2583;50.946;6.954;2022-11-20T03:01:51;12.97;;;11.60;;
5129;SDS011;2583;50.946;6.954;2022-11-20T03:04:18;12.33;;;11.03;;
5129;SDS011;2583;50.946;6.954;2022-11-20T03:06:45;12.23;;;11.03;;
5129;SDS011;2583;50.946;6.954;2022-11-20T03:09:12;14.67;;;12.87;;
5129;SDS011;2583;50.946;6.954;2022-11-20T03:11:39;12.63;;;11.33;;
5129;SDS011;2583;50.946;6.954;2022-11-20T03:14:05;12.97;;;11.67;;
5129;SDS011;2583;50.946;6.954;2022-11-20T03:16:32;14.77;;;12.30;;
5129;SDS011;2583;50.946;6.954;2022-11-20T03:18:59;13.63;;;12.10;;
5129;SDS011;2583;50.946;6.954;2022-11-20T03:21:27;13.80;;;12.37;;
5129;SDS011;2583;50.946;6.954;2022-11-20T03:23:54;13.57;;;12.27;;
5129;SDS011;2583;50.946;6.954;2022-11-20T03:26:21;14.80;;;13.20;;
5129;SDS011;2583;50.946;6.954;2022-11-20T03:28:51;16.13;;;13.13;;
5129;SDS011;2583;50.946;6.954;2022-11-20T03:31:20;12.83;;;11.53;;
5129;SDS011;2583;50.946;6.954;2022-11-20T03:33:49;12.47;;;11.20;;
5129;SDS011;2583;50.946;6.954;2022-11-20T03:36:17;14.90;;;12.67;;
5129;SDS011;2583;50.946;6.954;2022-11-20T03:38:45;14.70;;;12.33;;
5129;SDS011;2583;50.946;6.954;2022-11-20T03:41:17;13.93;;;12.50;;
5129;SDS011;2583;50.946;6.954;2022-11-20T03:43:49;15.57;;;13.90;;
5129;SDS011;2583;50.946;6.954;2022-11-20T03:46:23;20.33;;;14.40;;
5129;SDS011;2583;50.946;6.954;2022-11-20T03:48:50;14.63;;;13.13;;
5129;SDS011;2583;50.946;6.954;2022-11-20T03:51:21;15.40;;;12.77;;
5129;SDS011;2583;50.946;6.954;2022-11-20T03:54:00;16.30;;;13.33;;
5129;SDS011;2583;50.946;6.954;2022-11-20T03:56:30;14.90;;;13.07;;
5129;SDS011;2583;50.946;6.954;2022-11-20T03:58:58;21.53;;;13.23;;
5129;SDS011;2583;50.946;6.954;2022-11-20T04:01:26;16.63;;;13.97;;
5129;SDS011;2583;50.946;6.954;2022-11-20T04:03:55;16.57;;;13.40;;
5129;SDS011;2583;50.946;6.954;2022-11-20T04:06:24;15.07;;;13.60;;
5129;SDS011;2583;50.946;6.954;2022-11-20T04:08:56;15.87;;;14.10;;
5129;SDS011;2583;50.946;6.954;2022-11-20T04:11:25;16.00;;;13.70;;
5129;SDS011;2583;50.946;6.954;2022-11-20T04:13:54;21.10;;;15.27;;
5129;SDS011;2583;50.946;6.954;2022-11-20T04:16:22;17.20;;;13.70;;
5129;SDS011;2583;50.946;6.954;2022-11-20T04:18:53;15.00;;;13.43;;
5129;SDS011;2583;50.946;6.954;2022-11-20T04:21:21;15.20;;;13.20;;
5129;SDS011;2583;50.946;6.954;2022-11-20T04:23:49;14.87;;;13.27;;
5129;SDS011;2583;50.946;6.954;2022-11-20T04:26:17;15.00;;;13.43;;
5129;SDS011;2583;50.946;6.954;2022-11-20T04:28:44;15.63;;;14.03;;
5129;SDS011;2583;50.946;6.954;2022-11-20T04:31:12;18.10;;;14.63;;
5129;SDS011;2583;50.946;6.954;2022-11-20T04:33:43;15.03;;;13.43;;
5129;SDS011;2583;50.946;6.954;2022-11-20T04:36:11;18.80;;;14.10;;
5129;SDS011;2583;50.946;6.954;2022-11-20T04:38:40;17.80;;;14.37;;
5129;SDS011;2583;50.946;6.954;2022-11-20T04:41:08;17.73;;;15.30;;
5129;SDS011;2583;50.946;6.954;2022-11-20T04:43:40;15.93;;;14.23;;
5129;SDS011;2583;50.946;6.954;2022-11-20T04:46:07;19.70;;;13.93;;
5129;SDS011;2583;50.946;6.954;2022-11-20T04:48:34;16.60;;;14.10;;
5129;SDS011;2583;50.946;6.954;2022-11-20T04:51:04;17.50;;;14.50;;
5129;SDS011;2583;50.946;6.954;2022-11-20T04:53:31;19.07;;;15.70;;
5129;SDS011;2583;50.946;6.954;2022-11-20T04:56:16;15.60;;;13.90;;
5129;SDS011;2583;50.946;6.954;2022-11-20T04:58:43;17.33;;;14.27;;
5129;SDS011;2583;50.946;6.954;2022-11-20T05:01:11;19.03;;;15.00;;
5129;SDS011;2583;50.946;6.954;2022-11-20T05:03:40;18.47;;;15.10;;
5129;SDS011;2583;50.946;6.954;2022-11-20T05:06:09;18.17;;;14.63;;
5129;SDS011;2583;50.946;6.954;2022-11-20T05:08:37;18.93;;;14.40;;
5129;SDS011;2583;50.946;6.954;2022-11-20T05:11:05;16.27;;;13.43;;
5129;SDS011;2583;50.946;6.954;2022-11-20T05:13:42;18.87;;;15.40;;
5129;SDS011;2583;50.946;6.954;2022-11-20T05:16:10;17.00;;;14.03;;
5129;SDS011;2583;50.946;6.954;2022-11-20T05:18:39;17.27;;;14.20;;
5129;SDS011;2583;50.946;6.954;2022-11-20T05:21:07;18.80;;;16.00;;
5129;SDS011;2583;50.946;6.954;2022-11-20T05:23:35;19.73;;;15.47;;
5129;SDS011;2583;50.946;6.954;2022-11-20T05:26:02;17.13;;;14.60;;
5129;SDS011;2583;50.946;6.954;2022-11-20T05:28:30;18.43;;;14.10;;
5129;SDS011;2583;50.946;6.954;2022-11-20T05:31:05;20.90;;;14.70;;
5129;SDS011;2583;50.946;6.954;2022-11-20T05:33:36;21.87;;;15.67;;
5129;SDS011;2583;50.946;6.954;2022-11-20T05:36:06;16.33;;;13.83;;
5129;SDS011;2583;50.946;6.954;2022-11-20T05:38:33;16.90;;;14.77;;
5129;SDS011;2583;50.946;6.954;2022-11-20T05:41:19;19.13;;;14.40;;
5129;SDS011;2583;50.946;6.954;2022-11-20T05:43:47;17.07;;;15.27;;
5129;SDS011;2583;50.946;6.954;2022-11-20T05:46:15;16.67;;;14.43;;
5129;SDS011;2583;50.946;6.954;2022-11-20T05:48:47;16.47;;;14.57;;
5129;SDS011;2583;50.946;6.954;2022-11-20T05:51:15;17.50;;;14.67;;
5129;SDS011;2583;50.946;6.954;2022-11-20T05:53:43;18.20;;;14.30;;
5129;SDS011;2583;50.946;6.954;2022-11-20T05:56:15;17.87;;;15.53;;
5129;SDS011;2583;50.946;6.954;2022-11-20T05:58:43;15.73;;;13.67;;
5129;SDS011;2583;50.946;6.954;2022-11-20T06:01:16;20.13;;;16.67;;
5129;SDS011;2583;50.946;6.954;2022-11-20T06:03:44;22.47;;;16.50;;
5129;SDS011;2583;50.946;6.954;2022-11-20T06:06:14;24.27;;;16.53;;
5129;SDS011;2583;50.946;6.954;2022-11-20T06:08:41;22.07;;;16.23;;
5129;SDS011;2583;50.946;6.954;2022-11-20T06:11:09;22.87;;;17.30;;
5129;SDS011;2583;50.946;6.954;2022-11-20T06:13:37;24.30;;;18.20;;
5129;SDS011;2583;50.946;6.954;2022-11-20T06:16:08;21.83;;;16.17;;
5129;SDS011;2583;50.946;6.954;2022-11-20T06:18:35;22.90;;;16.93;;
5129;SDS011;2583;50.946;6.954;2022-11-20T06:23:31;25.07;;;18.30;;
5129;SDS011;2583;50.946;6.954;2022-11-20T06:26:05;26.43;;;18.17;;
5129;SDS011;2583;50.946;6.954;2022-11-20T06:28:34;22.60;;;16.63;;
5129;SDS011;2583;50.946;6.954;2022-11-20T06:31:01;25.20;;;17.90;;
5129;SDS011;2583;50.946;6.954;2022-11-20T06:33:29;23.60;;;17.63;;
5129;SDS011;2583;50.946;6.954;2022-11-20T06:35:56;27.47;;;18.37;;
5129;SDS011;2583;50.946;6.954;2022-11-20T06:38:28;26.43;;;17.20;;
5129;SDS011;2583;50.946;6.954;2022-11-20T06:40:55;28.00;;;18.40;;
5129;SDS011;2583;50.946;6.954;2022-11-20T06:43:22;23.63;;;18.07;;
5129;SDS011;2583;50.946;6.954;2022-11-20T06:45:52;24.50;;;17.00;;
5129;SDS011;2583;50.946;6.954;2022-11-20T06:48:20;24.17;;;17.60;;
5129;SDS011;2583;50.946;6.954;2022-11-20T06:50:47;23.30;;;16.83;;
5129;SDS011;2583;50.946;6.954;2022-11-20T06:53:14;21.43;;;17.17;;
5129;SDS011;2583;50.946;6.954;2022-11-20T06:55:42;26.90;;;17.57;;
5129;SDS011;2583;50.946;6.954;2022-11-20T06:58:10;22.70;;;16.57;;
5129;SDS011;2583;50.946;6.954;2022-11-20T07:00:37;24.50;;;17.80;;
5129;SDS011;2583;50.946;6.954;2022-11-20T07:03:04;22.73;;;16.70;;
5129;SDS011;2583;50.946;6.954;2022-11-20T07:05:32;24.47;;;17.60;;
5129;SDS011;2583;50.946;6.954;2022-11-20T07:07:59;24.13;;;16.27;;
5129;SDS011;2583;50.946;6.954;2022-11-20T07:10:26;21.00;;;15.90;;
5129;SDS011;2583;50.946;6.954;2022-11-20T07:12:53;22.07;;;15.53;;
5129;SDS011;2583;50.946;6.954;2022-11-20T07:15:20;20.97;;;16.97;;
5129;SDS011;2583;50.946;6.954;2022-11-20T07:17:49;21.00;;;16.23;;
5129;SDS011;2583;50.946;6.954;2022-11-20T07:20:15;25.30;;;17.20;;
5129;SDS011;2583;50.946;6.954;2022-11-20T07:22:42;20.87;;;14.77;;
5129;SDS011;2583;50.946;6.954;2022-11-20T07:25:09;19.30;;;14.30;;
5129;SDS011;2583;50.946;6.954;2022-11-20T07:27:36;20.27;;;15.83;;
5129;SDS011;2583;50.946;6.954;2022-11-20T07:30:03;15.63;;;12.87;;
5129;SDS011;2583;50.946;6.954;2022-11-20T07:32:30;18.10;;;13.73;;
5129;SDS011;2583;50.946;6.954;2022-11-20T07:34:57;12.47;;;10.73;;
5129;SDS011;2583;50.946;6.954;2022-11-20T07:37:24;17.90;;;12.57;;
5129;SDS011;2583;50.946;6.954;2022-11-20T07:39:51;14.33;;;12.50;;
5129;SDS011;2583;50.946;6.954;2022-11-20T07:42:17;13.83;;;12.20;;
5129;SDS011;2583;50.946;6.954;2022-11-20T07:44:44;13.00;;;11.60;;
5129;SDS011;2583;50.946;6.954;2022-11-20T07:47:11;17.60;;;13.73;;
5129;SDS011;2583;50.946;6.954;2022-11-20T07:49:38;13.10;;;11.77;;
5129;SDS011;2583;50.946;6.954;2022-11-20T07:52:04;12.63;;;10.83;;
5129;SDS011;2583;50.946;6.954;2022-11-20T07:54:31;16.97;;;12.80;;
5129;SDS011;2583;50.946;6.954;2022-11-20T07:56:58;17.03;;;13.37;;
5129;SDS011;2583;50.946;6.954;2022-11-20T07:59:25;17.17;;;14.20;;
5129;SDS011;2583;50.946;6.954;2022-11-20T08:01:51;15.17;;;13.50;;
5129;SDS011;2583;50.946;6.954;2022-11-20T08:04:18;14.67;;;12.70;;
5129;SDS011;2583;50.946;6.954;2022-11-20T08:06:45;15.87;;;12.83;;
5129;SDS011;2583;50.946;6.954;2022-11-20T08:09:11;16.63;;;13.10;;
5129;SDS011;2583;50.946;6.954;2022-11-20T08:11:38;13.60;;;12.20;;
5129;SDS011;2583;50.946;6.954;2022-11-20T08:14:23;12.70;;;11.40;;
5129;SDS011;2583;50.946;6.954;2022-11-20T08:16:50;15.50;;;12.60;;
5129;SDS011;2583;50.946;6.954;2022-11-20T08:19:17;11.97;;;10.73;;
5129;SDS011;2583;50.946;6.954;2022-11-20T08:21:45;12.00;;;10.70;;
5129;SDS011;2583;50.946;6.954;2022-11-20T08:24:12;13.23;;;10.20;;
5129;SDS011;2583;50.946;6.954;2022-11-20T08:26:39;10.67;;;9.60;;
5129;SDS011;2583;50.946;6.954;2022-11-20T08:29:07;16.97;;;13.47;;
5129;SDS011;2583;50.946;6.954;2022-11-20T08:31:33;18.87;;;15.30;;
5129;SDS011;2583;50.946;6.954;2022-11-20T08:34:00;16.63;;;14.60;;
5129;SDS011;2583;50.946;6.954;2022-11-20T08:36:34;16.97;;;14.60;;
5129;SDS011;2583;50.946;6.954;2022-11-20T08:39:01;16.77;;;14.77;;
5129;SDS011;2583;50.946;6.954;2022-11-20T08:41:29;18.00;;;14.60;;
5129;SDS011;2583;50.946;6.954;2022-11-20T08:43:59;15.70;;;14.03;;
5129;SDS011;2583;50.946;6.954;2022-11-20T08:46:32;24.23;;;15.80;;
5129;SDS011;2583;50.946;6.954;2022-11-20T08:49:04;17.50;;;14.70;;
5129;SDS011;2583;50.946;6.954;2022-11-20T08:51:32;16.77;;;14.97;;
5129;SDS011;2583;50.946;6.954;2022-11-20T08:53:59;19.83;;;16.10;;
5129;SDS011;2583;50.946;6.954;2022-11-20T08:56:26;21.30;;;14.93;;
5129;SDS011;2583;50.946;6.954;2022-11-20T08:58:53;18.40;;;15.10;;
5129;SDS011;2583;50.946;6.954;2022-11-20T09:01:40;19.63;;;15.63;;
5129;SDS011;2583;50.946;6.954;2022-11-20T09:04:07;22.47;;;15.63;;
5129;SDS011;2583;50.946;6.954;2022-11-20T09:06:34;19.07;;;16.40;;
5129;SDS011;2583;50.946;6.954;2022-11-20T09:09:00;18.83;;;15.67;;
5129;SDS011;2583;50.946;6.954;2022-11-20T09:11:32;20.77;;;16.50;;
5129;SDS011;2583;50.946;6.954;2022-11-20T09:14:00;20.80;;;15.83;;
5129;SDS011;2583;50.946;6.954;2022-11-20T09:16:28;20.53;;;16.63;;
5129;SDS011;2583;50.946;6.954;2022-11-20T09:18:55;25.10;;;17.03;;
5129;SDS011;2583;50.946;6.954;2022-11-20T09:21:42;19.43;;;15.30;;
5129;SDS011;2583;50.946;6.954;2022-11-20T09:24:08;21.40;;;16.67;;
5129;SDS011;2583;50.946;6.954;2022-11-20T09:26:35;21.30;;;16.17;;
5129;SDS011;2583;50.946;6.954;2022-11-20T09:29:02;20.70;;;16.67;;
5129;SDS011;2583;50.946;6.954;2022-11-20T09:31:29;24.93;;;16.63;;
5129;SDS011;2583;50.946;6.954;2022-11-20T09:33:55;19.33;;;15.00;;
5129;SDS011;2583;50.946;6.954;2022-11-20T09:36:22;18.23;;;15.07;;
5129;SDS011;2583;50.946;6.954;2022-11-20T09:38:49;20.93;;;17.50;;
5129;SDS011;2583;50.946;6.954;2022-11-20T09:53:11;18.70;;;14.93;;
5129;SDS011;2583;50.946;6.954;2022-11-20T09:55:32;20.33;;;15.50;;
5129;SDS011;2583;50.946;6.954;2022-11-20T09:58:02;18.67;;;15.77;;
5129;SDS011;2583;50.946;6.954;2022-11-20T10:00:32;21.60;;;16.17;;
5129;SDS011;2583;50.946;6.954;2022-11-20T10:03:16;16.33;;;14.47;;
5129;SDS011;2583;50.946;6.954;2022-11-20T10:05:51;17.67;;;15.07;;
5129;SDS011;2583;50.946;6.954;2022-11-20T10:08:25;20.27;;;16.30;;
5129;SDS011;2583;50.946;6.954;2022-11-20T10:11:00;21.10;;;16.90;;
5129;SDS011;2583;50.946;6.954;2022-11-20T10:16:41;25.03;;;15.60;;
5129;SDS011;2583;50.946;6.954;2022-11-20T10:24:41;22.90;;;15.87;;
5129;SDS011;2583;50.946;6.954;2022-11-20T10:30:09;22.50;;;16.20;;
5129;SDS011;2583;50.946;6.954;2022-11-20T10:32:39;20.03;;;15.87;;
5129;SDS011;2583;50.946;6.954;2022-11-20T10:37:43;20.43;;;16.20;;
5129;SDS011;2583;50.946;6.954;2022-11-20T10:40:19;23.50;;;17.37;;
5129;SDS011;2583;50.946;6.954;2022-11-20T10:42:52;21.40;;;16.50;;
5129;SDS011;2583;50.946;6.954;2022-11-20T10:50:47;23.03;;;18.67;;
5129;SDS011;2583;50.946;6.954;2022-11-20T10:59:00;23.67;;;17.77;;
5129;SDS011;2583;50.946;6.954;2022-11-20T11:01:39;24.33;;;17.90;;
5129;SDS011;2583;50.946;6.954;2022-11-20T11:07:01;22.97;;;18.17;;
5129;SDS011;2583;50.946;6.954;2022-11-20T11:09:43;23.47;;;17.43;;
5129;SDS011;2583;50.946;6.954;2022-11-20T11:12:15;21.47;;;16.63;;
5129;SDS011;2583;50.946;6.954;2022-11-20T11:14:43;23.30;;;17.50;;
5129;SDS011;2583;50.946;6.954;2022-11-20T11:17:25;23.77;;;17.33;;
5129;SDS011;2583;50.946;6.954;2022-11-20T11:20:00;23.80;;;18.53;;
5129;SDS011;2583;50.946;6.954;2022-11-20T11:22:34;24.03;;;17.10;;
5129;SDS011;2583;50.946;6.954;2022-11-20T11:25:24;21.97;;;16.53;;
5129;SDS011;2583;50.946;6.954;2022-11-20T11:28:19;22.20;;;16.10;;
5129;SDS011;2583;50.946;6.954;2022-11-20T11:30:47;21.97;;;16.57;;
5129;SDS011;2583;50.946;6.954;2022-11-20T11:33:22;24.30;;;17.27;;
5129;SDS011;2583;50.946;6.954;2022-11-20T11:35:55;24.30;;;17.27;;
5129;SDS011;2583;50.946;6.954;2022-11-20T11:41:03;23.00;;;17.50;;
5129;SDS011;2583;50.946;6.954;2022-11-20T11:43:32;20.80;;;17.30;;
5129;SDS011;2583;50.946;6.954;2022-11-20T11:54:16;24.97;;;17.90;;
5129;SDS011;2583;50.946;6.954;2022-11-20T11:56:54;21.97;;;16.40;;
5129;SDS011;2583;50.946;6.954;2022-11-20T12:02:29;26.07;;;18.90;;
5129;SDS011;2583;50.946;6.954;2022-11-20T12:05:30;20.90;;;16.13;;
5129;SDS011;2583;50.946;6.954;2022-11-20T12:08:18;20.13;;;16.30;;
5129;SDS011;2583;50.946;6.954;2022-11-20T12:10:52;24.67;;;17.80;;
5129;SDS011;2583;50.946;6.954;2022-11-20T12:13:40;23.60;;;18.17;;
5129;SDS011;2583;50.946;6.954;2022-11-20T12:16:10;26.00;;;18.27;;
5129;SDS011;2583;50.946;6.954;2022-11-20T12:18:40;25.07;;;18.07;;
5129;SDS011;2583;50.946;6.954;2022-11-20T12:40:44;22.83;;;16.77;;
5129;SDS011;2583;50.946;6.954;2022-11-20T12:43:19;20.83;;;16.77;;
5129;SDS011;2583;50.946;6.954;2022-11-20T12:52:06;21.53;;;16.50;;
5129;SDS011;2583;50.946;6.954;2022-11-20T12:54:54;21.83;;;16.50;;
5129;SDS011;2583;50.946;6.954;2022-11-20T13:05:55;33.73;;;18.27;;
5129;SDS011;2583;50.946;6.954;2022-11-20T13:08:40;24.20;;;15.80;;
5129;SDS011;2583;50.946;6.954;2022-11-20T13:19:55;20.53;;;15.90;;
5129;SDS011;2583;50.946;6.954;2022-11-20T13:23:10;27.33;;;17.53;;
5129;SDS011;2583;50.946;6.954;2022-11-20T13:25:29;20.57;;;15.73;;
5129;SDS011;2583;50.946;6.954;2022-11-20T13:27:58;19.37;;;15.70;;
5129;SDS011;2583;50.946;6.954;2022-11-20T13:30:27;18.70;;;14.30;;
5129;SDS011;2583;50.946;6.954;2022-11-20T13:33:01;21.43;;;16.40;;
5129;SDS011;2583;50.946;6.954;2022-11-20T13:35:40;24.43;;;17.30;;
5129;SDS011;2583;50.946;6.954;2022-11-20T13:38:09;21.93;;;15.57;;
5129;SDS011;2583;50.946;6.954;2022-11-20T13:40:56;22.63;;;16.93;;
5129;SDS011;2583;50.946;6.954;2022-11-20T13:43:35;18.80;;;14.60;;
5129;SDS011;2583;50.946;6.954;2022-11-20T13:46:05;22.73;;;15.80;;
5129;SDS011;2583;50.946;6.954;2022-11-20T13:48:38;20.80;;;15.10;;
5129;SDS011;2583;50.946;6.954;2022-11-20T13:51:10;21.57;;;15.70;;
5129;SDS011;2583;50.946;6.954;2022-11-20T14:02:09;22.90;;;16.73;;
5129;SDS011;2583;50.946;6.954;2022-11-20T14:04:40;18.60;;;15.20;;
5129;SDS011;2583;50.946;6.954;2022-11-20T14:07:35;19.10;;;14.53;;
5129;SDS011;2583;50.946;6.954;2022-11-20T14:10:06;21.70;;;16.43;;
5129;SDS011;2583;50.946;6.954;2022-11-20T14:12:45;20.23;;;15.40;;
5129;SDS011;2583;50.946;6.954;2022-11-20T14:15:24;17.87;;;14.73;;
5129;SDS011;2583;50.946;6.954;2022-11-20T14:17:54;18.67;;;14.67;;
5129;SDS011;2583;50.946;6.954;2022-11-20T14:20:22;21.03;;;14.73;;
5129;SDS011;2583;50.946;6.954;2022-11-20T14:22:55;22.70;;;15.60;;
5129;SDS011;2583;50.946;6.954;2022-11-20T14:25:23;18.90;;;14.80;;
5129;SDS011;2583;50.946;6.954;2022-11-20T14:27:53;25.43;;;18.57;;
5129;SDS011;2583;50.946;6.954;2022-11-20T14:30:23;18.07;;;14.37;;
5129;SDS011;2583;50.946;6.954;2022-11-20T14:32:55;17.63;;;14.87;;
5129;SDS011;2583;50.946;6.954;2022-11-20T14:35:27;21.93;;;15.53;;
5129;SDS011;2583;50.946;6.954;2022-11-20T14:37:57;18.90;;;14.80;;
5129;SDS011;2583;50.946;6.954;2022-11-20T14:42:53;18.67;;;14.60;;
5129;SDS011;2583;50.946;6.954;2022-11-20T14:45:21;18.03;;;14.50;;
5129;SDS011;2583;50.946;6.954;2022-11-20T14:47:48;15.20;;;13.03;;
5129;SDS011;2583;50.946;6.954;2022-11-20T14:50:19;19.70;;;15.30;;
5129;SDS011;2583;50.946;6.954;2022-11-20T14:52:51;20.40;;;13.80;;
5129;SDS011;2583;50.946;6.954;2022-11-20T14:55:25;22.30;;;16.00;;
5129;SDS011;2583;50.946;6.954;2022-11-20T14:58:21;25.33;;;17.37;;
5129;SDS011;2583;50.946;6.954;2022-11-20T15:00:54;27.80;;;19.23;;
5129;SDS011;2583;50.946;6.954;2022-11-20T15:03:34;16.57;;;12.63;;
5129;SDS011;2583;50.946;6.954;2022-11-20T15:06:06;20.17;;;14.43;;
5129;SDS011;2583;50.946;6.954;2022-11-20T15:08:36;25.27;;;14.50;;
5129;SDS011;2583;50.946;6.954;2022-11-20T15:11:03;17.70;;;13.33;;
5129;SDS011;2583;50.946;6.954;2022-11-20T15:14:02;20.90;;;15.10;;
5129;SDS011;2583;50.946;6.954;2022-11-20T15:16:31;20.40;;;15.20;;
5129;SDS011;2583;50.946;6.954;2022-11-20T15:18:58;22.10;;;15.90;;
5129;SDS011;2583;50.946;6.954;2022-11-20T15:21:27;21.53;;;15.23;;
5129;SDS011;2583;50.946;6.954;2022-11-20T15:23:54;27.33;;;21.13;;
5129;SDS011;2583;50.946;6.954;2022-11-20T15:26:25;16.37;;;14.60;;
5129;SDS011;2583;50.946;6.954;2022-11-20T15:28:54;22.30;;;17.67;;
5129;SDS011;2583;50.946;6.954;2022-11-20T15:31:22;21.70;;;14.73;;
5129;SDS011;2583;50.946;6.954;2022-11-20T15:33:49;23.40;;;15.57;;
5129;SDS011;2583;50.946;6.954;2022-11-20T15:36:17;27.43;;;16.43;;
5129;SDS011;2583;50.946;6.954;2022-11-20T15:38:44;27.30;;;17.00;;
5129;SDS011;2583;50.946;6.954;2022-11-20T15:41:11;20.63;;;15.57;;
5129;SDS011;2583;50.946;6.954;2022-11-20T15:43:38;21.70;;;16.57;;
5129;SDS011;2583;50.946;6.954;2022-11-20T15:46:05;47.53;;;34.17;;
5129;SDS011;2583;50.946;6.954;2022-11-20T15:48:48;26.13;;;16.10;;
5129;SDS011;2583;50.946;6.954;2022-11-20T15:53:55;21.97;;;16.10;;
5129;SDS011;2583;50.946;6.954;2022-11-20T15:56:22;27.50;;;16.33;;
5129;SDS011;2583;50.946;6.954;2022-11-20T15:58:50;25.20;;;17.97;;
5129;SDS011;2583;50.946;6.954;2022-11-20T16:01:17;20.43;;;13.70;;
5129;SDS011;2583;50.946;6.954;2022-11-20T16:03:47;18.63;;;13.43;;
5129;SDS011;2583;50.946;6.954;2022-11-20T16:06:13;22.27;;;15.77;;
5129;SDS011;2583;50.946;6.954;2022-11-20T16:08:42;56.60;;;35.53;;
5129;SDS011;2583;50.946;6.954;2022-11-20T16:11:10;60.97;;;36.70;;
5129;SDS011;2583;50.946;6.954;2022-11-20T16:13:39;47.67;;;28.50;;
5129;SDS011;2583;50.946;6.954;2022-11-20T16:16:26;16.37;;;13.20;;
5129;SDS011;2583;50.946;6.954;2022-11-20T16:18:56;19.60;;;12.20;;
5129;SDS011;2583;50.946;6.954;2022-11-20T16:21:24;16.47;;;11.33;;
5129;SDS011;2583;50.946;6.954;2022-11-20T16:24:01;12.83;;;10.90;;
5129;SDS011;2583;50.946;6.954;2022-11-20T16:26:30;17.73;;;11.30;;
5129;SDS011;2583;50.946;6.954;2022-11-20T16:28:59;13.43;;;11.27;;
5129;SDS011;2583;50.946;6.954;2022-11-20T16:31:26;16.30;;;11.13;;
5129;SDS011;2583;50.946;6.954;2022-11-20T16:33:54;13.77;;;11.17;;
5129;SDS011;2583;50.946;6.954;2022-11-20T16:36:24;15.37;;;11.60;;
5129;SDS011;2583;50.946;6.954;2022-11-20T16:38:57;14.47;;;10.10;;
5129;SDS011;2583;50.946;6.954;2022-11-20T16:41:27;11.27;;;9.60;;
5129;SDS011;2583;50.946;6.954;2022-11-20T16:43:56;14.83;;;11.00;;
5129;SDS011;2583;50.946;6.954;2022-11-20T16:46:25;18.90;;;11.50;;
5129;SDS011;2583;50.946;6.954;2022-11-20T16:48:57;15.10;;;10.27;;
5129;SDS011;2583;50.946;6.954;2022-11-20T16:51:29;19.30;;;11.23;;
5129;SDS011;2583;50.946;6.954;2022-11-20T16:53:57;12.20;;;9.87;;
5129;SDS011;2583;50.946;6.954;2022-11-20T16:56:27;14.13;;;9.53;;
5129;SDS011;2583;50.946;6.954;2022-11-20T16:58:56;11.93;;;9.40;;
5129;SDS011;2583;50.946;6.954;2022-11-20T17:01:25;8.87;;;6.73;;
5129;SDS011;2583;50.946;6.954;2022-11-20T17:04:00;7.57;;;6.83;;
5129;SDS011;2583;50.946;6.954;2022-11-20T17:06:32;8.93;;;5.80;;
5129;SDS011;2583;50.946;6.954;2022-11-20T17:09:00;7.83;;;6.67;;